M I D A S
Marine Information and Data Acquisition System
Tripno 758 of the Zeeleeuw from 2004-07-23 09:13:46 to 2004-07-23 13:34:26
Back to CruiseResearch ActivitiesStationsMapUnderway DataData graphs

EquipmentUnitsComment
TimeDGPSUTC
LatitudeDGPSDM.mWGS84
LongitudeDGPSDM.mWGS84
HeadingGyrodeg 
SOGDGPSknotsSpeed over ground
COGDGPSdegCourse over ground
DepthEcho soundermeters200 kHz
Missing or incorrect values are displayed as -999
Navigation data collected by the RV Zeeleeuw from 2004-07-23 09:13:46 to 2004-07-23 13:34:26
Time Latitude Longitude Heading SOG COG Depth
2004-07-23 09:14:50 51°13.597 2°56.097 116.9 0.1 187 7.1
2004-07-23 09:15:50 51°13.608 2°56.057 115.7 3 294 -999
2004-07-23 09:16:50 51°13.634 2°55.97 120.2 4.2 298 -999
2004-07-23 09:17:50 51°13.664 2°55.864 111 4.5 291 -999
2004-07-23 09:18:50 51°13.678 2°55.758 92.1 2.7 275 -999
2004-07-23 09:19:49 51°13.695 2°55.761 27.5 3 12 13.7
2004-07-23 09:20:49 51°13.768 2°55.697 328.5 6.8 324 8.7
2004-07-23 09:21:49 51°13.884 2°55.596 340.6 8.7 337 9.4
2004-07-23 09:22:50 51°14.026 2°55.511 343.8 9.2 340 10.4
2004-07-23 09:23:50 51°14.173 2°55.4 335.8 10.4 327 10.7
2004-07-23 09:24:50 51°14.307 2°55.175 314.5 12.5 312 10
2004-07-23 09:25:50 51°14.461 2°54.932 317.9 13.3 313 9.2
2004-07-23 09:26:50 51°14.637 2°54.73 336.2 13 329 8.6
2004-07-23 09:27:50 51°14.827 2°54.562 338.1 13 328 8.4
2004-07-23 09:28:50 51°15.013 2°54.396 343.3 12.5 335 7.4
2004-07-23 09:29:50 51°15.201 2°54.24 336.4 13 325 7.9
2004-07-23 09:30:50 51°15.385 2°54.064 346.4 12.9 338 8.7
2004-07-23 09:31:50 51°15.582 2°53.914 341.8 13.1 333 9.5
2004-07-23 09:32:48 51°15.771 2°53.767 342.2 13.1 332 10.2
2004-07-23 09:33:50 51°15.972 2°53.607 343.5 13 334 10.6
2004-07-23 09:34:50 51°16.165 2°53.45 342.9 13 333 11.1
2004-07-23 09:35:50 51°16.357 2°53.289 340.8 13 330 11.2
2004-07-23 09:36:50 51°16.545 2°53.115 340.1 13.1 329 11.1
2004-07-23 09:37:50 51°16.734 2°52.945 340.3 13 331 10
2004-07-23 09:38:50 51°16.922 2°52.79 341.6 12.7 334 8.3
2004-07-23 09:39:50 51°17.112 2°52.627 337.8 12.9 330 8.7
2004-07-23 09:40:50 51°17.301 2°52.464 338.1 13 327 9.1
2004-07-23 09:41:50 51°17.426 2°52.176 307.7 13.5 300 9.5
2004-07-23 09:42:50 51°17.52 2°51.85 297.9 13.6 289 9.5
2004-07-23 09:43:51 51°17.603 2°51.51 299.3 13.5 290 8.7
2004-07-23 09:44:50 51°17.69 2°51.176 300.4 13.7 290 8.9
2004-07-23 09:45:50 51°17.765 2°50.829 298.9 13.9 291 10.5
2004-07-23 09:46:50 51°17.842 2°50.481 296.9 13.9 289 11.6
2004-07-23 09:47:50 51°17.916 2°50.136 297.6 13.8 288 12.3
2004-07-23 09:48:50 51°17.99 2°49.789 297.5 13.8 289 12.8
2004-07-23 09:49:50 51°18.064 2°49.443 297.3 13.8 289 12.5
2004-07-23 09:50:50 51°18.144 2°49.097 299 13.8 290 10.1
2004-07-23 09:51:51 51°18.227 2°48.75 299.7 13.9 291 9.3
2004-07-23 09:52:50 51°18.305 2°48.406 298.1 13.8 291 9.1
2004-07-23 09:53:50 51°18.382 2°48.054 293.2 14.2 285 11.6
2004-07-23 09:54:50 51°18.439 2°47.693 292.7 14 285 12.7
2004-07-23 09:55:50 51°18.496 2°47.332 292.1 14 284 16.1
2004-07-23 09:56:50 51°18.548 2°46.971 291.9 14 282 17.2
2004-07-23 09:57:50 51°18.607 2°46.611 297 14 287 17.9
2004-07-23 09:58:51 51°18.675 2°46.247 295.4 14.1 286 19.5
2004-07-23 09:59:50 51°18.741 2°45.893 295.7 14.2 285 19.6
2004-07-23 10:00:50 51°18.807 2°45.531 295.6 14.2 286 17.9
2004-07-23 10:01:50 51°18.878 2°45.171 297.6 14.2 288 13.5
2004-07-23 10:02:50 51°18.951 2°44.811 296.5 14.1 288 11.3
2004-07-23 10:03:50 51°19.026 2°44.447 296.5 14.5 288 17.4
2004-07-23 10:04:50 51°19.098 2°44.088 296.1 14.1 288 21.1
2004-07-23 10:05:50 51°19.169 2°43.732 295.3 14.1 287 22.1
2004-07-23 10:06:50 51°19.238 2°43.377 296.3 14 288 23.1
2004-07-23 10:07:50 51°19.306 2°43.021 296.6 14 288 22.9
2004-07-23 10:08:51 51°19.375 2°42.657 295 14.1 286 23
2004-07-23 10:09:50 51°19.442 2°42.306 296.1 14 287 23.1
2004-07-23 10:10:55 51°19.516 2°41.918 296.1 14.1 287 21.8
2004-07-23 10:11:55 51°19.587 2°41.561 296.8 14.1 288 18.4
2004-07-23 10:12:54 51°19.658 2°41.205 295.8 14.3 287 17.7
2004-07-23 10:13:58 51°19.735 2°40.819 296.1 14.3 288 18.9
2004-07-23 10:15:00 51°19.811 2°40.441 296.6 14.6 288 25.8
2004-07-23 10:16:00 51°19.88 2°40.074 296.6 14.3 287 27.1
2004-07-23 10:17:00 51°19.949 2°39.71 296.3 14.3 287 27.5
2004-07-23 10:18:00 51°20.019 2°39.347 296.8 14.2 287 26.1
2004-07-23 10:19:00 51°20.088 2°38.984 295.8 14.3 287 23.6
2004-07-23 10:20:00 51°20.157 2°38.62 296.4 14.2 287 23.2
2004-07-23 10:21:00 51°20.228 2°38.257 295.9 14.4 286 22.9
2004-07-23 10:22:00 51°20.297 2°37.894 296.1 14.2 287 22.4
2004-07-23 10:23:00 51°20.367 2°37.532 295.9 14.3 287 22.4
2004-07-23 10:24:03 51°20.451 2°37.159 299.8 14.2 290 22
2004-07-23 10:25:03 51°20.553 2°36.822 308.3 14.1 299 21.1
2004-07-23 10:26:05 51°20.681 2°36.497 313 14 302 20.5
2004-07-23 10:27:04 51°20.807 2°36.192 312.7 14 304 21.5
2004-07-23 10:28:04 51°20.955 2°35.911 324.2 13.6 315 26.4
2004-07-23 10:29:04 51°21.134 2°35.707 336.4 13.2 323 29.4
2004-07-23 10:30:04 51°21.306 2°35.484 333.1 13.3 322 33.7
2004-07-23 10:31:04 51°21.478 2°35.257 331.3 13.4 320 30.3
2004-07-23 10:32:04 51°21.647 2°35.025 331.1 13.4 320 29.6
2004-07-23 10:33:06 51°21.825 2°34.792 331.6 13.4 320 30.2
2004-07-23 10:34:04 51°21.989 2°34.569 331 13.4 319 28.9
2004-07-23 10:35:10 51°22.154 2°34.269 321.5 13.7 310 23.6
2004-07-23 10:36:10 51°22.285 2°33.97 309 14 298 24
2004-07-23 10:37:10 51°22.373 2°33.62 298.1 14.2 289 29.8
2004-07-23 10:38:09 51°22.44 2°33.264 296.5 14.3 287 29.8
2004-07-23 10:39:10 51°22.509 2°32.893 295.2 14.4 282 29.8
2004-07-23 10:40:10 51°22.515 2°32.503 277.1 14.9 269 30.2
2004-07-23 10:41:10 51°22.52 2°32.108 281 14.9 273 30
2004-07-23 10:42:09 51°22.531 2°31.717 281.4 15 272 29.8
2004-07-23 10:43:10 51°22.542 2°31.314 280.7 15 272 30
2004-07-23 10:44:10 51°22.555 2°30.915 281.5 15 272 29.4
2004-07-23 10:45:10 51°22.575 2°30.514 282.8 14.7 274 27.8
2004-07-23 10:46:10 51°22.588 2°30.125 281.8 14.7 273 31.8
2004-07-23 10:47:09 51°22.599 2°29.741 281.9 14.7 272 32.6
2004-07-23 10:48:10 51°22.613 2°29.34 282.2 14.9 273 32.2
2004-07-23 10:49:10 51°22.623 2°28.946 282 14.9 272 32.8
2004-07-23 10:50:10 51°22.63 2°28.553 282 14.7 272 33.1
2004-07-23 10:51:10 51°22.633 2°28.162 278.6 14.8 268 34.1
2004-07-23 10:52:09 51°22.625 2°27.775 277.5 14.8 267 33.8
2004-07-23 10:53:09 51°22.609 2°27.381 275.9 14.8 267 33.7
2004-07-23 10:54:14 51°22.6 2°26.954 280.1 14.7 271 33.1
2004-07-23 10:55:14 51°22.6 2°26.56 280.7 14.8 271 32.7
2004-07-23 10:56:14 51°22.661 2°26.2 314.5 13.4 306 29.7
2004-07-23 10:57:13 51°22.841 2°26.048 351.3 12.6 338 20.9
2004-07-23 10:58:13 51°23.038 2°25.932 353.9 12.7 341 15.9
2004-07-23 10:59:14 51°23.244 2°25.836 0.2 12.5 350 26.3
2004-07-23 11:00:14 51°23.45 2°25.789 2.3 12.5 352 31.3
2004-07-23 11:01:14 51°23.654 2°25.776 11.1 12.1 2 31.9
2004-07-23 11:02:14 51°23.856 2°25.794 14.1 12.2 4 32.2
2004-07-23 11:03:13 51°24.053 2°25.817 14.2 12 6 32.4
2004-07-23 11:04:14 51°24.255 2°25.854 17.2 11.9 8 33.3
2004-07-23 11:05:14 51°24.452 2°25.895 18 11.9 10 33.4
2004-07-23 11:06:14 51°24.647 2°25.932 16.6 11.8 7 33.4
2004-07-23 11:07:14 51°24.842 2°25.965 15.9 11.7 5 34.3
2004-07-23 11:08:14 51°25.033 2°25.995 16.3 11.5 6 34
2004-07-23 11:09:14 51°25.223 2°26.029 16 11.5 6 34.2
2004-07-23 11:10:14 51°25.414 2°26.06 16 11.5 6 33.4
2004-07-23 11:11:13 51°25.602 2°26.091 17.1 11.6 7 33.4
2004-07-23 11:12:13 51°25.796 2°26.129 16.9 11.8 8 31
2004-07-23 11:13:13 51°25.991 2°26.163 16.5 11.8 8 33.3
2004-07-23 11:14:14 51°26.189 2°26.212 17.7 11.9 8 31.9
2004-07-23 11:15:14 51°26.384 2°26.262 18.3 11.8 10 27.2
2004-07-23 11:16:14 51°26.577 2°26.314 18.4 11.9 9 25.6
2004-07-23 11:17:14 51°26.772 2°26.367 18.5 11.9 9 21.2
2004-07-23 11:18:14 51°26.967 2°26.416 18.8 11.9 9 22.7
2004-07-23 11:19:14 51°27.164 2°26.465 18.7 12.1 10 25.2
2004-07-23 11:20:14 51°27.363 2°26.529 20 12.2 12 30
2004-07-23 11:21:14 51°27.561 2°26.597 19.7 12.2 11 33
2004-07-23 11:22:14 51°27.76 2°26.664 20.7 12.2 13 33
2004-07-23 11:23:13 51°27.955 2°26.729 19.4 12.2 12 32.8
2004-07-23 11:24:14 51°28.158 2°26.8 21 12.4 13 33.3
2004-07-23 11:25:14 51°28.359 2°26.871 19.9 12.4 11 31.6
2004-07-23 11:26:14 51°28.563 2°26.931 19.2 12.4 12 33.2
2004-07-23 11:27:14 51°28.689 2°26.966 22.6 4.8 15 34.3
2004-07-23 11:28:14 51°28.718 2°27.029 66.2 2.6 77 34.4
2004-07-23 11:29:15 51°28.711 2°27.061 81.1 1.2 132 34.2
2004-07-23 11:30:14 51°28.694 2°27.08 85.1 1.1 157 33.9
2004-07-23 11:31:14 51°28.676 2°27.081 75.2 1.1 194 33.7
2004-07-23 11:32:14 51°28.657 2°27.067 60.9 1.4 210 33.6
2004-07-23 11:33:15 51°28.638 2°27.049 49.1 1.3 208 33.6
2004-07-23 11:34:14 51°28.62 2°27.034 40.1 1.1 208 33.8
2004-07-23 11:35:14 51°28.684 2°27.108 42.5 10.2 40 33.6
2004-07-23 11:36:14 51°28.789 2°27.37 67.5 12.2 66 33.5
2004-07-23 11:37:14 51°28.87 2°27.67 67.7 12.1 66 31.6
2004-07-23 11:38:14 51°28.94 2°27.974 76.9 12.1 78 25.2
2004-07-23 11:39:14 51°28.985 2°28.29 75.3 12.2 74 24.2
2004-07-23 11:40:14 51°29.034 2°28.604 77.6 12.1 79 22.7
2004-07-23 11:41:14 51°29.08 2°28.919 75.4 12.3 76 31.9
2004-07-23 11:42:14 51°29.118 2°29.238 79.6 12.2 81 35
2004-07-23 11:43:14 51°29.156 2°29.558 76.4 12.3 77 38.2
2004-07-23 11:44:14 51°29.208 2°29.874 75.6 12.3 76 38.8
2004-07-23 11:45:14 51°29.252 2°30.194 76.6 12.2 78 36.6
2004-07-23 11:46:15 51°29.299 2°30.516 75.4 12.3 76 35.4
2004-07-23 11:47:14 51°29.346 2°30.83 76.9 12.4 76 35.3
2004-07-23 11:48:14 51°29.393 2°31.151 77.6 12.4 77 34.6
2004-07-23 11:49:14 51°29.441 2°31.473 77.5 12.4 78 33
2004-07-23 11:50:14 51°29.491 2°31.795 77.6 12.5 75 30.6
2004-07-23 11:51:14 51°29.542 2°32.117 76.9 12.5 74 28.5
2004-07-23 11:52:14 51°29.588 2°32.444 79.8 12.7 78 25.7
2004-07-23 11:53:14 51°29.633 2°32.773 80.4 12.5 80 23.5
2004-07-23 11:54:15 51°29.68 2°33.101 79.1 12.3 77 22.6
2004-07-23 11:55:15 51°29.722 2°33.418 79.5 12.1 79 16.6
2004-07-23 11:56:14 51°29.76 2°33.725 80.9 11.7 80 14.8
2004-07-23 11:57:14 51°29.789 2°34.039 81.2 12.2 85 25.1
2004-07-23 11:58:15 51°29.772 2°34.377 92 12.5 96 37.1
2004-07-23 11:59:14 51°29.75 2°34.705 94.6 12.8 102 37.2
2004-07-23 12:00:14 51°29.671 2°35.029 108.8 13.1 116 37.4
2004-07-23 12:01:14 51°29.53 2°35.309 127.7 13.7 131 38.2
2004-07-23 12:02:14 51°29.376 2°35.58 131.5 13.8 135 35.1
2004-07-23 12:03:14 51°29.218 2°35.841 131.3 13.6 135 34.3
2004-07-23 12:04:14 51°29.042 2°36.075 139.7 13.8 143 29
2004-07-23 12:05:14 51°28.858 2°36.292 139.1 13.7 144 25.6
2004-07-23 12:06:15 51°28.671 2°36.514 139.6 13.9 144 28.3
2004-07-23 12:07:14 51°28.481 2°36.718 140.3 14 146 35.6
2004-07-23 12:08:14 51°28.29 2°36.929 140.3 14 145 37.1
2004-07-23 12:09:14 51°28.101 2°37.146 139.7 14.1 144 36
2004-07-23 12:10:14 51°27.913 2°37.365 140 14 144 36.5
2004-07-23 12:11:14 51°27.719 2°37.575 143.7 14.1 146 32.7
2004-07-23 12:12:14 51°27.523 2°37.779 143.8 14.2 147 32.6
2004-07-23 12:13:17 51°27.316 2°37.993 143.2 14.1 149 33.4
2004-07-23 12:14:18 51°27.113 2°38.194 144.1 14.2 149 33.8
2004-07-23 12:15:16 51°26.919 2°38.383 144.4 14.1 149 33
2004-07-23 12:16:18 51°26.711 2°38.582 145.7 14.1 150 32.3
2004-07-23 12:17:16 51°26.515 2°38.765 144.7 14.1 147 32.2
2004-07-23 12:18:23 51°26.292 2°38.981 145.7 14 150 34.8
2004-07-23 12:19:27 51°26.077 2°39.185 145 14.1 150 33.2
2004-07-23 12:20:32 51°25.851 2°39.372 147 13.9 152 30.2
2004-07-23 12:21:34 51°25.637 2°39.555 146.5 14.1 151 31
2004-07-23 12:22:34 51°25.432 2°39.729 146.5 13.9 152 29.4
2004-07-23 12:23:34 51°25.228 2°39.902 146.1 13.9 151 27.6
2004-07-23 12:24:34 51°25.026 2°40.084 147.9 14 151 26.7
2004-07-23 12:25:34 51°24.823 2°40.265 147.3 14 151 26.1
2004-07-23 12:26:32 51°24.627 2°40.442 146.1 14 149 26.8
2004-07-23 12:27:34 51°24.418 2°40.633 147.6 14 152 25.2
2004-07-23 12:28:34 51°24.213 2°40.813 148.7 14.1 151 28.3
2004-07-23 12:29:34 51°24.004 2°40.985 149.5 14 152 29.5
2004-07-23 12:30:34 51°23.796 2°41.157 149.5 14 153 28.8
2004-07-23 12:31:33 51°23.593 2°41.328 149.9 14 153 29.6
2004-07-23 12:32:39 51°23.354 2°41.483 156.9 14.1 159 28.9
2004-07-23 12:33:39 51°23.137 2°41.622 156 14.2 160 27.6
2004-07-23 12:34:39 51°22.916 2°41.746 163.3 14.2 172 28.1
2004-07-23 12:35:44 51°22.657 2°41.739 179.5 14.6 184 29.7
2004-07-23 12:36:43 51°22.42 2°41.721 178.4 14.5 182 28.6
2004-07-23 12:37:44 51°22.173 2°41.707 178.9 14.6 182 26.5
2004-07-23 12:38:44 51°21.933 2°41.696 179.1 14.4 182 27.4
2004-07-23 12:39:48 51°21.676 2°41.681 178 14.4 181 24.5
2004-07-23 12:40:48 51°21.437 2°41.705 173 14.5 176 25.7
2004-07-23 12:41:47 51°21.205 2°41.751 163.9 14.1 167 25.6
2004-07-23 12:42:48 51°20.983 2°41.88 151 13.7 154 23.7
2004-07-23 12:43:48 51°20.785 2°42.056 141.7 13.5 145 15.5
2004-07-23 12:44:48 51°20.614 2°42.286 130.4 13.3 133 18.4
2004-07-23 12:45:48 51°20.476 2°42.561 124.1 13.3 127 22
2004-07-23 12:46:48 51°20.345 2°42.844 119.7 13.1 124 22.9
2004-07-23 12:47:48 51°20.232 2°43.137 115.4 12.7 118 26.4
2004-07-23 12:48:46 51°20.131 2°43.423 114.8 12.6 119 26.8
2004-07-23 12:49:48 51°20.035 2°43.733 112.3 12.6 116 25.6
2004-07-23 12:50:48 51°19.939 2°44.033 112 12.7 116 26.2
2004-07-23 12:51:48 51°19.845 2°44.337 112.5 12.8 116 24.3
2004-07-23 12:52:48 51°19.75 2°44.643 112.5 12.9 115 22.8
2004-07-23 12:53:48 51°19.656 2°44.955 111.7 13 114 21.6
2004-07-23 12:54:48 51°19.569 2°45.272 113.2 12.9 115 13.3
2004-07-23 12:55:48 51°19.477 2°45.579 113.2 12.9 117 11.8
2004-07-23 12:56:48 51°19.378 2°45.885 112.3 12.9 116 16
2004-07-23 12:57:48 51°19.284 2°46.188 110 12.6 116 18.7
2004-07-23 12:58:48 51°19.191 2°46.488 110.9 12.6 116 21.2
2004-07-23 12:59:48 51°19.098 2°46.789 111 12.5 117 21.4
2004-07-23 13:00:48 51°19.009 2°47.093 109.2 12.6 114 20.9
2004-07-23 13:01:51 51°18.929 2°47.419 107.9 12.6 113 19.2
2004-07-23 13:02:52 51°18.848 2°47.738 107.4 12.8 110 17.7
2004-07-23 13:03:51 51°18.772 2°48.051 107.9 12.9 111 15.5
2004-07-23 13:04:56 51°18.689 2°48.399 107.5 12.9 111 13.1
2004-07-23 13:05:56 51°18.607 2°48.715 112.7 12.9 115 11.5
2004-07-23 13:06:56 51°18.511 2°49.026 114.5 13.2 117 11.1
2004-07-23 13:07:56 51°18.411 2°49.341 114 13.3 117 11.5
2004-07-23 13:08:56 51°18.311 2°49.66 113 13.4 117 13.4
2004-07-23 13:09:56 51°18.214 2°49.976 112.8 13.2 115 14.4
2004-07-23 13:10:56 51°18.11 2°50.288 113.8 13.2 118 14.1
2004-07-23 13:11:56 51°18.008 2°50.598 113.1 13.2 117 13.1
2004-07-23 13:12:56 51°17.91 2°50.91 113.1 13.2 115 12.4
2004-07-23 13:13:56 51°17.803 2°51.214 120.2 13.2 124 10.8
2004-07-23 13:14:56 51°17.678 2°51.505 120.6 13.3 124 10.3
2004-07-23 13:15:56 51°17.554 2°51.799 124 13.7 127 10.7
2004-07-23 13:16:56 51°17.386 2°52.047 138.4 13.9 141 10.9
2004-07-23 13:17:56 51°17.184 2°52.228 151.6 13.9 153 10.8
2004-07-23 13:18:56 51°16.966 2°52.363 161.1 14 162 10.2
2004-07-23 13:19:56 51°16.744 2°52.496 157.5 14.1 159 10.3
2004-07-23 13:20:56 51°16.527 2°52.643 155.5 14.1 156 12
2004-07-23 13:21:55 51°16.317 2°52.793 156.2 14 156 12.9
2004-07-23 13:22:56 51°16.098 2°52.947 156 14 157 12.8
2004-07-23 13:23:56 51°15.887 2°53.091 155.9 13.9 157 12.4
2004-07-23 13:24:56 51°15.676 2°53.234 155.5 13.8 157 11.9
2004-07-23 13:26:01 51°15.463 2°53.433 145.1 13.6 145 11.3
2004-07-23 13:27:02 51°15.268 2°53.629 148.3 13.8 149 10.5
2004-07-23 13:28:01 51°15.08 2°53.829 146.6 13.8 145 10.2
2004-07-23 13:29:00 51°14.901 2°54.041 142.2 13.4 141 9.8
2004-07-23 13:30:00 51°14.737 2°54.279 138.3 13.5 136 10.7
2004-07-23 13:31:00 51°14.592 2°54.54 134 12.9 132 10.7
2004-07-23 13:32:01 51°14.466 2°54.815 129.1 12.6 126 11.4
2004-07-23 13:33:00 51°14.364 2°55.04 129.7 9.9 126 11.6
2004-07-23 13:34:01 51°14.273 2°55.233 131.3 8.7 128 11.8